sensor_id;sensor_type;location;lat;lon;timestamp;pressure;altitude;pressure_sealevel;temperature;humidity
73674;BME280;61975;48.660;10.164;2023-07-29T00:01:48;95324.59;;;17.55;100.00
73674;BME280;61975;48.660;10.164;2023-07-29T00:04:14;95318.53;;;17.56;100.00
73674;BME280;61975;48.660;10.164;2023-07-29T00:06:40;95309.69;;;17.58;100.00
73674;BME280;61975;48.660;10.164;2023-07-29T00:09:05;95312.84;;;17.60;100.00
73674;BME280;61975;48.660;10.164;2023-07-29T00:11:30;95313.63;;;17.60;100.00
73674;BME280;61975;48.660;10.164;2023-07-29T00:13:59;95306.81;;;17.61;100.00
73674;BME280;61975;48.660;10.164;2023-07-29T00:16:24;95305.63;;;17.59;100.00
73674;BME280;61975;48.660;10.164;2023-07-29T00:18:50;95297.22;;;17.59;100.00
73674;BME280;61975;48.660;10.164;2023-07-29T00:21:15;95292.41;;;17.59;100.00
73674;BME280;61975;48.660;10.164;2023-07-29T00:23:40;95291.06;;;17.48;100.00
73674;BME280;61975;48.660;10.164;2023-07-29T00:26:06;95274.03;;;17.39;100.00
73674;BME280;61975;48.660;10.164;2023-07-29T00:28:31;95268.22;;;17.30;100.00
73674;BME280;61975;48.660;10.164;2023-07-29T00:30:57;95270.16;;;17.33;100.00
73674;BME280;61975;48.660;10.164;2023-07-29T00:33:22;95285.25;;;17.39;100.00
73674;BME280;61975;48.660;10.164;2023-07-29T00:35:47;95288.81;;;17.39;100.00
73674;BME280;61975;48.660;10.164;2023-07-29T00:38:13;95291.03;;;17.32;100.00
73674;BME280;61975;48.660;10.164;2023-07-29T00:40:38;95295.41;;;17.33;100.00
73674;BME280;61975;48.660;10.164;2023-07-29T00:43:04;95303.97;;;17.26;100.00
73674;BME280;61975;48.660;10.164;2023-07-29T00:45:30;95302.31;;;17.28;100.00
73674;BME280;61975;48.660;10.164;2023-07-29T00:47:57;95306.69;;;17.29;100.00
73674;BME280;61975;48.660;10.164;2023-07-29T00:50:22;95295.47;;;17.29;100.00
73674;BME280;61975;48.660;10.164;2023-07-29T00:52:49;95291.88;;;17.29;100.00
73674;BME280;61975;48.660;10.164;2023-07-29T00:55:14;95291.09;;;17.28;100.00
73674;BME280;61975;48.660;10.164;2023-07-29T00:57:41;95276.88;;;17.19;100.00
73674;BME280;61975;48.660;10.164;2023-07-29T01:00:07;95280.03;;;17.21;100.00
73674;BME280;61975;48.660;10.164;2023-07-29T01:02:34;95271.19;;;17.23;100.00
73674;BME280;61975;48.660;10.164;2023-07-29T01:05:01;95262.38;;;17.21;100.00
73674;BME280;61975;48.660;10.164;2023-07-29T01:07:49;95282.66;;;17.12;100.00
73674;BME280;61975;48.660;10.164;2023-07-29T01:12:56;95270.53;;;17.15;100.00
73674;BME280;61975;48.660;10.164;2023-07-29T01:18:06;95273.00;;;17.13;100.00
73674;BME280;61975;48.660;10.164;2023-07-29T01:20:36;95270.25;;;17.10;100.00
73674;BME280;61975;48.660;10.164;2023-07-29T01:23:02;95265.00;;;17.12;100.00
73674;BME280;61975;48.660;10.164;2023-07-29T01:25:27;95265.44;;;17.10;100.00
73674;BME280;61975;48.660;10.164;2023-07-29T01:27:53;95255.38;;;17.13;100.00
73674;BME280;61975;48.660;10.164;2023-07-29T01:30:25;95266.59;;;17.13;100.00
73674;BME280;61975;48.660;10.164;2023-07-29T01:33:04;95260.53;;;17.14;100.00
73674;BME280;61975;48.660;10.164;2023-07-29T01:38:32;95262.56;;;17.14;100.00
73674;BME280;61975;48.660;10.164;2023-07-29T01:41:04;95256.16;;;17.13;100.00
73674;BME280;61975;48.660;10.164;2023-07-29T01:43:30;95262.56;;;17.14;100.00
73674;BME280;61975;48.660;10.164;2023-07-29T01:45:56;95259.75;;;17.14;100.00
73674;BME280;61975;48.660;10.164;2023-07-29T01:48:22;95258.19;;;17.13;100.00
73674;BME280;61975;48.660;10.164;2023-07-29T01:50:47;95261.34;;;17.15;100.00
73674;BME280;61975;48.660;10.164;2023-07-29T01:53:13;95267.38;;;17.13;100.00
73674;BME280;61975;48.660;10.164;2023-07-29T01:55:39;95263.78;;;17.13;100.00
73674;BME280;61975;48.660;10.164;2023-07-29T01:58:04;95260.53;;;17.14;100.00
73674;BME280;61975;48.660;10.164;2023-07-29T02:00:30;95261.78;;;17.13;100.00
73674;BME280;61975;48.660;10.164;2023-07-29T02:02:55;95254.59;;;17.12;100.00
73674;BME280;61975;48.660;10.164;2023-07-29T02:05:20;95256.94;;;17.14;100.00
73674;BME280;61975;48.660;10.164;2023-07-29T02:07:46;95255.38;;;17.13;100.00
73674;BME280;61975;48.660;10.164;2023-07-29T02:10:11;95256.59;;;17.12;100.00
73674;BME280;61975;48.660;10.164;2023-07-29T02:12:37;95255.38;;;17.13;100.00
73674;BME280;61975;48.660;10.164;2023-07-29T02:15:03;95242.91;;;17.14;100.00
73674;BME280;61975;48.660;10.164;2023-07-29T02:17:28;95246.94;;;17.13;100.00
73674;BME280;61975;48.660;10.164;2023-07-29T02:19:54;95238.53;;;17.13;100.00
73674;BME280;61975;48.660;10.164;2023-07-29T02:22:19;95244.94;;;17.13;100.00
73674;BME280;61975;48.660;10.164;2023-07-29T02:24:45;95248.53;;;17.14;100.00
73674;BME280;61975;48.660;10.164;2023-07-29T02:27:10;95240.13;;;17.14;100.00
73674;BME280;61975;48.660;10.164;2023-07-29T02:29:36;95249.00;;;17.12;100.00
73674;BME280;61975;48.660;10.164;2023-07-29T02:32:02;95242.59;;;17.12;100.00
73674;BME280;61975;48.660;10.164;2023-07-29T02:34:28;95242.91;;;17.14;100.00
73674;BME280;61975;48.660;10.164;2023-07-29T02:36:56;95240.13;;;17.14;100.00
73674;BME280;61975;48.660;10.164;2023-07-29T02:39:22;95247.31;;;17.15;100.00
73674;BME280;61975;48.660;10.164;2023-07-29T02:41:48;95242.47;;;17.15;100.00
73674;BME280;61975;48.660;10.164;2023-07-29T02:44:14;95237.69;;;17.16;100.00
73674;BME280;61975;48.660;10.164;2023-07-29T02:46:40;95230.50;;;17.15;100.00
73674;BME280;61975;48.660;10.164;2023-07-29T02:49:05;95247.75;;;17.13;100.00
73674;BME280;61975;48.660;10.164;2023-07-29T02:51:31;95250.44;;;17.01;100.00
73674;BME280;61975;48.660;10.164;2023-07-29T02:53:56;95245.88;;;17.07;100.00
73674;BME280;61975;48.660;10.164;2023-07-29T02:56:22;95250.72;;;17.06;100.00
73674;BME280;61975;48.660;10.164;2023-07-29T02:58:47;95240.28;;;17.07;100.00
73674;BME280;61975;48.660;10.164;2023-07-29T03:01:13;95237.47;;;17.07;100.00
73674;BME280;61975;48.660;10.164;2023-07-29T03:03:39;95243.50;;;17.05;100.00
73674;BME280;61975;48.660;10.164;2023-07-29T03:06:08;95241.16;;;17.04;100.00
73674;BME280;61975;48.660;10.164;2023-07-29T03:08:34;95224.78;;;17.02;100.00
73674;BME280;61975;48.660;10.164;2023-07-29T03:11:06;95225.22;;;17.01;100.00
73674;BME280;61975;48.660;10.164;2023-07-29T03:13:32;95234.91;;;16.96;100.00
73674;BME280;61975;48.660;10.164;2023-07-29T03:16:05;95231.69;;;16.98;100.00
73674;BME280;61975;48.660;10.164;2023-07-29T03:18:31;95215.72;;;16.95;100.00
73674;BME280;61975;48.660;10.164;2023-07-29T03:20:56;95226.94;;;16.95;100.00
73674;BME280;61975;48.660;10.164;2023-07-29T03:23:22;95215.00;;;16.91;100.00
73674;BME280;61975;48.660;10.164;2023-07-29T03:25:50;95219.81;;;16.90;100.00
73674;BME280;61975;48.660;10.164;2023-07-29T03:28:22;95212.63;;;16.89;100.00
73674;BME280;61975;48.660;10.164;2023-07-29T03:30:48;95213.50;;;16.86;100.00
73674;BME280;61975;48.660;10.164;2023-07-29T03:33:13;95211.13;;;16.85;100.00
73674;BME280;61975;48.660;10.164;2023-07-29T03:35:38;95201.59;;;16.82;100.00
73674;BME280;61975;48.660;10.164;2023-07-29T03:38:04;95195.59;;;16.80;100.00
73674;BME280;61975;48.660;10.164;2023-07-29T03:40:29;95201.66;;;16.79;100.00
73674;BME280;61975;48.660;10.164;2023-07-29T03:42:54;95210.50;;;16.77;100.00
73674;BME280;61975;48.660;10.164;2023-07-29T03:45:20;95206.13;;;16.76;100.00
73674;BME280;61975;48.660;10.164;2023-07-29T03:47:45;95202.16;;;16.74;100.00
73674;BME280;61975;48.660;10.164;2023-07-29T03:50:11;95199.81;;;16.72;100.00
73674;BME280;61975;48.660;10.164;2023-07-29T03:52:36;95201.81;;;16.72;100.00
73674;BME280;61975;48.660;10.164;2023-07-29T03:55:01;95205.84;;;16.71;100.00
73674;BME280;61975;48.660;10.164;2023-07-29T03:57:27;95199.44;;;16.70;100.00
73674;BME280;61975;48.660;10.164;2023-07-29T03:59:54;95207.13;;;16.66;100.00
73674;BME280;61975;48.660;10.164;2023-07-29T04:02:19;95206.00;;;16.64;100.00
73674;BME280;61975;48.660;10.164;2023-07-29T04:04:44;95208.78;;;16.64;100.00
73674;BME280;61975;48.660;10.164;2023-07-29T04:07:12;95200.66;;;16.69;100.00
73674;BME280;61975;48.660;10.164;2023-07-29T04:09:38;95200.22;;;16.71;100.00
73674;BME280;61975;48.660;10.164;2023-07-29T04:12:03;95193.81;;;16.70;100.00
73674;BME280;61975;48.660;10.164;2023-07-29T04:14:29;95192.13;;;16.57;100.00
73674;BME280;61975;48.660;10.164;2023-07-29T04:16:54;95194.34;;;16.65;100.00
73674;BME280;61975;48.660;10.164;2023-07-29T04:19:20;95194.25;;;16.69;100.00
73674;BME280;61975;48.660;10.164;2023-07-29T04:21:45;95199.00;;;16.72;100.00
73674;BME280;61975;48.660;10.164;2023-07-29T04:24:11;95190.53;;;16.75;100.00
73674;BME280;61975;48.660;10.164;2023-07-29T04:26:36;95189.66;;;16.78;100.00
73674;BME280;61975;48.660;10.164;2023-07-29T04:29:04;95186.44;;;16.80;100.00
73674;BME280;61975;48.660;10.164;2023-07-29T04:31:29;95196.75;;;16.83;100.00
73674;BME280;61975;48.660;10.164;2023-07-29T04:33:54;95183.09;;;16.85;100.00
73674;BME280;61975;48.660;10.164;2023-07-29T04:36:20;95180.66;;;16.87;100.00
73674;BME280;61975;48.660;10.164;2023-07-29T04:38:45;95189.41;;;16.89;100.00
73674;BME280;61975;48.660;10.164;2023-07-29T04:41:10;95186.59;;;16.89;100.00
73674;BME280;61975;48.660;10.164;2023-07-29T04:43:36;95178.56;;;16.91;100.00
73674;BME280;61975;48.660;10.164;2023-07-29T04:46:01;95186.53;;;16.92;100.00
73674;BME280;61975;48.660;10.164;2023-07-29T04:48:27;95184.50;;;16.93;100.00
73674;BME280;61975;48.660;10.164;2023-07-29T04:50:52;95181.44;;;16.87;100.00
73674;BME280;61975;48.660;10.164;2023-07-29T04:53:17;95185.75;;;16.92;100.00
73674;BME280;61975;48.660;10.164;2023-07-29T04:55:43;95186.09;;;16.94;100.00
73674;BME280;61975;48.660;10.164;2023-07-29T04:58:09;95195.28;;;16.94;100.00
73674;BME280;61975;48.660;10.164;2023-07-29T05:00:35;95203.38;;;16.92;100.00
73674;BME280;61975;48.660;10.164;2023-07-29T05:03:01;95209.31;;;16.94;100.00
73674;BME280;61975;48.660;10.164;2023-07-29T05:05:26;95205.31;;;16.95;100.00
73674;BME280;61975;48.660;10.164;2023-07-29T05:07:52;95199.25;;;16.97;100.00
73674;BME280;61975;48.660;10.164;2023-07-29T05:10:17;95198.47;;;16.96;100.00
73674;BME280;61975;48.660;10.164;2023-07-29T05:12:43;95195.22;;;16.98;100.00
73674;BME280;61975;48.660;10.164;2023-07-29T05:15:09;95192.75;;;17.00;100.00
73674;BME280;61975;48.660;10.164;2023-07-29T05:17:34;95190.31;;;17.02;100.00
73674;BME280;61975;48.660;10.164;2023-07-29T05:20:00;95196.72;;;17.02;100.00
73674;BME280;61975;48.660;10.164;2023-07-29T05:22:25;95186.66;;;17.05;100.00
73674;BME280;61975;48.660;10.164;2023-07-29T05:24:50;95193.81;;;17.06;100.00
73674;BME280;61975;48.660;10.164;2023-07-29T05:27:16;95195.78;;;17.09;100.00
73674;BME280;61975;48.660;10.164;2023-07-29T05:29:41;95193.31;;;17.11;100.00
73674;BME280;61975;48.660;10.164;2023-07-29T05:32:07;95196.47;;;17.13;100.00
73674;BME280;61975;48.660;10.164;2023-07-29T05:34:32;95188.66;;;17.04;100.00
73674;BME280;61975;48.660;10.164;2023-07-29T05:36:58;95190.00;;;17.16;100.00
73674;BME280;61975;48.660;10.164;2023-07-29T05:39:23;95195.06;;;17.21;100.00
73674;BME280;61975;48.660;10.164;2023-07-29T05:41:49;95201.41;;;17.25;100.00
73674;BME280;61975;48.660;10.164;2023-07-29T05:44:14;95197.38;;;17.26;100.00
73674;BME280;61975;48.660;10.164;2023-07-29T05:46:40;95193.25;;;17.30;100.00
73674;BME280;61975;48.660;10.164;2023-07-29T05:49:05;95191.16;;;17.34;100.00
73674;BME280;61975;48.660;10.164;2023-07-29T05:51:30;95197.03;;;17.40;100.00
73674;BME280;61975;48.660;10.164;2023-07-29T05:53:56;95196.53;;;17.45;100.00
73674;BME280;61975;48.660;10.164;2023-07-29T05:56:21;95198.47;;;17.48;100.00
73674;BME280;61975;48.660;10.164;2023-07-29T05:58:46;95189.53;;;17.53;100.00
73674;BME280;61975;48.660;10.164;2023-07-29T06:01:12;95198.22;;;17.58;100.00
73674;BME280;61975;48.660;10.164;2023-07-29T06:03:37;95209.69;;;17.64;100.00
73674;BME280;61975;48.660;10.164;2023-07-29T06:06:03;95211.97;;;17.69;100.00
73674;BME280;61975;48.660;10.164;2023-07-29T06:08:28;95211.63;;;17.67;100.00
73674;BME280;61975;48.660;10.164;2023-07-29T06:10:54;95209.16;;;17.69;100.00
73674;BME280;61975;48.660;10.164;2023-07-29T06:13:19;95200.41;;;17.67;100.00
73674;BME280;61975;48.660;10.164;2023-07-29T06:15:45;95223.09;;;17.56;100.00
73674;BME280;61975;48.660;10.164;2023-07-29T06:18:10;95234.25;;;17.60;100.00
73674;BME280;61975;48.660;10.164;2023-07-29T06:20:36;95284.94;;;17.53;100.00
73674;BME280;61975;48.660;10.164;2023-07-29T06:23:01;95306.06;;;17.22;100.00
73674;BME280;61975;48.660;10.164;2023-07-29T06:25:27;95290.97;;;17.16;100.00
73674;BME280;61975;48.660;10.164;2023-07-29T06:27:52;95251.00;;;17.28;100.00
73674;BME280;61975;48.660;10.164;2023-07-29T06:30:18;95240.84;;;17.34;100.00
73674;BME280;61975;48.660;10.164;2023-07-29T06:32:43;95233.31;;;17.31;100.00
73674;BME280;61975;48.660;10.164;2023-07-29T06:35:08;95240.84;;;17.34;100.00
73674;BME280;61975;48.660;10.164;2023-07-29T06:37:34;95233.94;;;17.38;100.00
73674;BME280;61975;48.660;10.164;2023-07-29T06:39:59;95226.31;;;17.39;100.00
73674;BME280;61975;48.660;10.164;2023-07-29T06:42:25;95220.22;;;17.44;100.00
73674;BME280;61975;48.660;10.164;2023-07-29T06:44:50;95222.78;;;17.54;100.00
73674;BME280;61975;48.660;10.164;2023-07-29T06:47:15;95223.28;;;17.65;100.00
73674;BME280;61975;48.660;10.164;2023-07-29T06:49:41;95215.38;;;17.76;100.00
73674;BME280;61975;48.660;10.164;2023-07-29T06:52:06;95213.78;;;17.91;100.00
73674;BME280;61975;48.660;10.164;2023-07-29T06:54:32;95207.03;;;18.05;100.00
73674;BME280;61975;48.660;10.164;2023-07-29T06:56:57;95212.59;;;18.21;100.00
73674;BME280;61975;48.660;10.164;2023-07-29T06:59:23;95209.25;;;18.26;100.00
73674;BME280;61975;48.660;10.164;2023-07-29T07:01:50;95205.72;;;18.38;100.00
73674;BME280;61975;48.660;10.164;2023-07-29T07:04:15;95218.25;;;18.49;100.00
73674;BME280;61975;48.660;10.164;2023-07-29T07:06:40;95218.72;;;18.60;100.00
73674;BME280;61975;48.660;10.164;2023-07-29T07:09:06;95220.00;;;18.72;100.00
73674;BME280;61975;48.660;10.164;2023-07-29T07:11:32;95215.31;;;18.81;100.00
73674;BME280;61975;48.660;10.164;2023-07-29T07:13:57;95205.53;;;18.86;100.00
73674;BME280;61975;48.660;10.164;2023-07-29T07:16:22;95198.44;;;18.94;100.00
73674;BME280;61975;48.660;10.164;2023-07-29T07:18:48;95205.47;;;19.02;100.00
73674;BME280;61975;48.660;10.164;2023-07-29T07:21:13;95196.44;;;19.07;100.00
73674;BME280;61975;48.660;10.164;2023-07-29T07:23:39;95187.78;;;19.14;100.00
73674;BME280;61975;48.660;10.164;2023-07-29T07:26:04;95201.97;;;19.23;100.00
73674;BME280;61975;48.660;10.164;2023-07-29T07:28:30;95198.31;;;19.26;100.00
73674;BME280;61975;48.660;10.164;2023-07-29T07:30:55;95195.94;;;19.37;100.00
73674;BME280;61975;48.660;10.164;2023-07-29T07:33:21;95193.00;;;19.41;100.00
73674;BME280;61975;48.660;10.164;2023-07-29T07:35:47;95186.59;;;19.53;100.00
73674;BME280;61975;48.660;10.164;2023-07-29T07:38:12;95188.25;;;19.63;100.00
73674;BME280;61975;48.660;10.164;2023-07-29T07:40:38;95196.47;;;19.70;100.00
73674;BME280;61975;48.660;10.164;2023-07-29T07:43:03;95198.91;;;19.80;100.00
73674;BME280;61975;48.660;10.164;2023-07-29T07:45:28;95196.22;;;19.89;100.00
73674;BME280;61975;48.660;10.164;2023-07-29T07:47:54;95194.41;;;19.95;100.00
73674;BME280;61975;48.660;10.164;2023-07-29T07:50:20;95189.22;;;19.94;100.00
73674;BME280;61975;48.660;10.164;2023-07-29T07:52:45;95188.78;;;19.95;100.00
73674;BME280;61975;48.660;10.164;2023-07-29T07:55:11;95192.16;;;19.90;100.00
73674;BME280;61975;48.660;10.164;2023-07-29T07:57:36;95193.50;;;19.98;100.00
73674;BME280;61975;48.660;10.164;2023-07-29T08:00:02;95200.34;;;19.97;100.00
73674;BME280;61975;48.660;10.164;2023-07-29T08:02:29;95199.03;;;19.89;100.00
73674;BME280;61975;48.660;10.164;2023-07-29T08:04:55;95210.66;;;19.91;100.00
73674;BME280;61975;48.660;10.164;2023-07-29T08:07:20;95229.56;;;19.91;100.00
73674;BME280;61975;48.660;10.164;2023-07-29T08:09:45;95280.84;;;19.73;100.00
73674;BME280;61975;48.660;10.164;2023-07-29T08:12:11;95274.63;;;19.41;100.00
73674;BME280;61975;48.660;10.164;2023-07-29T08:14:36;95273.50;;;19.38;100.00
73674;BME280;61975;48.660;10.164;2023-07-29T08:17:02;95265.09;;;19.09;100.00
73674;BME280;61975;48.660;10.164;2023-07-29T08:19:28;95271.88;;;18.71;100.00
73674;BME280;61975;48.660;10.164;2023-07-29T08:21:53;95253.28;;;18.61;100.00
73674;BME280;61975;48.660;10.164;2023-07-29T08:24:18;95257.38;;;18.72;100.00
73674;BME280;61975;48.660;10.164;2023-07-29T08:26:44;95254.31;;;18.67;100.00
73674;BME280;61975;48.660;10.164;2023-07-29T08:29:09;95249.00;;;18.69;100.00
73674;BME280;61975;48.660;10.164;2023-07-29T08:31:34;95240.09;;;18.86;100.00
73674;BME280;61975;48.660;10.164;2023-07-29T08:34:00;95242.47;;;19.00;100.00
73674;BME280;61975;48.660;10.164;2023-07-29T08:36:26;95238.66;;;19.07;100.00
73674;BME280;61975;48.660;10.164;2023-07-29T08:38:51;95238.78;;;19.16;100.00
73674;BME280;61975;48.660;10.164;2023-07-29T08:41:21;95238.03;;;19.28;100.00
73674;BME280;61975;48.660;10.164;2023-07-29T08:44:01;95225.09;;;19.43;100.00
73674;BME280;61975;48.660;10.164;2023-07-29T08:46:33;95220.25;;;19.56;100.00
73674;BME280;61975;48.660;10.164;2023-07-29T08:48:59;95211.09;;;19.65;100.00
73674;BME280;61975;48.660;10.164;2023-07-29T08:51:24;95209.75;;;19.69;100.00
73674;BME280;61975;48.660;10.164;2023-07-29T08:53:51;95204.56;;;19.80;100.00
73674;BME280;61975;48.660;10.164;2023-07-29T08:56:16;95217.19;;;19.88;100.00
73674;BME280;61975;48.660;10.164;2023-07-29T08:58:42;95231.47;;;19.94;100.00
73674;BME280;61975;48.660;10.164;2023-07-29T09:01:08;95228.53;;;19.97;100.00
73674;BME280;61975;48.660;10.164;2023-07-29T09:03:34;95238.22;;;19.96;100.00
73674;BME280;61975;48.660;10.164;2023-07-29T09:05:59;95240.91;;;20.00;100.00
73674;BME280;61975;48.660;10.164;2023-07-29T09:08:27;95245.53;;;20.06;100.00
73674;BME280;61975;48.660;10.164;2023-07-29T09:10:53;95250.28;;;20.22;100.00
73674;BME280;61975;48.660;10.164;2023-07-29T09:13:19;95246.63;;;20.34;100.00
73674;BME280;61975;48.660;10.164;2023-07-29T09:15:45;95249.53;;;20.43;100.00
73674;BME280;61975;48.660;10.164;2023-07-29T09:18:12;95245.22;;;20.51;100.00
73674;BME280;61975;48.660;10.164;2023-07-29T09:20:37;95233.16;;;20.50;100.00
73674;BME280;61975;48.660;10.164;2023-07-29T09:23:03;95240.75;;;20.62;100.00
73674;BME280;61975;48.660;10.164;2023-07-29T09:25:31;95246.81;;;20.73;100.00
73674;BME280;61975;48.660;10.164;2023-07-29T09:28:00;95244.53;;;20.81;100.00
73674;BME280;61975;48.660;10.164;2023-07-29T09:30:26;95249.56;;;20.64;100.00
73674;BME280;61975;48.660;10.164;2023-07-29T09:32:55;95259.19;;;20.54;100.00
73674;BME280;61975;48.660;10.164;2023-07-29T09:35:21;95247.72;;;20.49;100.00
73674;BME280;61975;48.660;10.164;2023-07-29T09:37:46;95249.94;;;20.54;100.00
73674;BME280;61975;48.660;10.164;2023-07-29T09:40:14;95245.41;;;20.56;100.00
73674;BME280;61975;48.660;10.164;2023-07-29T09:42:47;95244.19;;;20.57;100.00
73674;BME280;61975;48.660;10.164;2023-07-29T09:45:22;95250.22;;;20.34;100.00
73674;BME280;61975;48.660;10.164;2023-07-29T09:47:48;95247.22;;;20.29;100.00
73674;BME280;61975;48.660;10.164;2023-07-29T09:50:14;95246.78;;;20.18;100.00
73674;BME280;61975;48.660;10.164;2023-07-29T09:52:39;95249.72;;;20.14;100.00
73674;BME280;61975;48.660;10.164;2023-07-29T09:55:05;95242.63;;;19.97;100.00
73674;BME280;61975;48.660;10.164;2023-07-29T09:57:31;95237.91;;;19.82;100.00
73674;BME280;61975;48.660;10.164;2023-07-29T09:59:57;95229.69;;;19.75;100.00
73674;BME280;61975;48.660;10.164;2023-07-29T10:02:23;95222.03;;;19.75;100.00
73674;BME280;61975;48.660;10.164;2023-07-29T10:04:52;95217.03;;;19.92;100.00
73674;BME280;61975;48.660;10.164;2023-07-29T10:07:18;95211.72;;;20.06;100.00
73674;BME280;61975;48.660;10.164;2023-07-29T10:09:45;95209.00;;;20.03;100.00
73674;BME280;61975;48.660;10.164;2023-07-29T10:12:12;95216.34;;;20.13;100.00
73674;BME280;61975;48.660;10.164;2023-07-29T10:14:38;95212.97;;;20.18;100.00
73674;BME280;61975;48.660;10.164;2023-07-29T10:17:05;95213.50;;;20.25;100.00
73674;BME280;61975;48.660;10.164;2023-07-29T10:19:31;95212.72;;;20.25;100.00
73674;BME280;61975;48.660;10.164;2023-07-29T10:21:59;95210.63;;;20.04;100.00
73674;BME280;61975;48.660;10.164;2023-07-29T10:24:32;95205.53;;;19.99;100.00
73674;BME280;61975;48.660;10.164;2023-07-29T10:27:00;95200.69;;;19.99;100.00
73674;BME280;61975;48.660;10.164;2023-07-29T10:29:38;95196.25;;;20.23;100.00
73674;BME280;61975;48.660;10.164;2023-07-29T10:32:04;95201.44;;;20.25;100.00
73674;BME280;61975;48.660;10.164;2023-07-29T10:34:31;95204.97;;;20.38;100.00
73674;BME280;61975;48.660;10.164;2023-07-29T10:36:57;95222.19;;;20.52;100.00
73674;BME280;61975;48.660;10.164;2023-07-29T10:39:24;95205.34;;;20.61;100.00
73674;BME280;61975;48.660;10.164;2023-07-29T10:42:03;95200.03;;;20.63;100.00
73674;BME280;61975;48.660;10.164;2023-07-29T10:47:21;95213.69;;;20.86;100.00
73674;BME280;61975;48.660;10.164;2023-07-29T10:49:52;95220.06;;;20.99;100.00
73674;BME280;61975;48.660;10.164;2023-07-29T10:55:01;95212.81;;;21.20;100.00
73674;BME280;61975;48.660;10.164;2023-07-29T10:57:38;95217.78;;;21.37;100.00
73674;BME280;61975;48.660;10.164;2023-07-29T11:00:06;95214.69;;;21.53;100.00
73674;BME280;61975;48.660;10.164;2023-07-29T11:02:34;95201.91;;;21.71;100.00
73674;BME280;61975;48.660;10.164;2023-07-29T11:05:06;95205.09;;;21.82;100.00
73674;BME280;61975;48.660;10.164;2023-07-29T11:07:43;95201.22;;;21.88;100.00
73674;BME280;61975;48.660;10.164;2023-07-29T11:10:08;95210.97;;;21.96;100.00
73674;BME280;61975;48.660;10.164;2023-07-29T11:12:47;95198.75;;;22.08;100.00
73674;BME280;61975;48.660;10.164;2023-07-29T11:15:25;95202.53;;;22.23;99.92
73674;BME280;61975;48.660;10.164;2023-07-29T11:17:56;95198.31;;;22.28;100.00
73674;BME280;61975;48.660;10.164;2023-07-29T11:20:24;95187.31;;;22.39;100.00
73674;BME280;61975;48.660;10.164;2023-07-29T11:22:52;95171.47;;;22.50;98.04
73674;BME280;61975;48.660;10.164;2023-07-29T11:25:18;95168.47;;;22.63;100.00
73674;BME280;61975;48.660;10.164;2023-07-29T11:27:44;95167.53;;;22.66;89.86
73674;BME280;61975;48.660;10.164;2023-07-29T11:30:11;95169.72;;;22.71;89.88
73674;BME280;61975;48.660;10.164;2023-07-29T11:32:38;95155.09;;;22.72;92.01
73674;BME280;61975;48.660;10.164;2023-07-29T11:35:05;95161.69;;;22.78;91.55
73674;BME280;61975;48.660;10.164;2023-07-29T11:37:32;95158.53;;;22.85;88.24
73674;BME280;61975;48.660;10.164;2023-07-29T11:39:58;95158.97;;;23.02;89.27
73674;BME280;61975;48.660;10.164;2023-07-29T11:42:24;95160.66;;;23.17;83.35
73674;BME280;61975;48.660;10.164;2023-07-29T11:44:49;95155.78;;;23.27;81.28
73674;BME280;61975;48.660;10.164;2023-07-29T11:47:14;95165.88;;;23.28;80.98
73674;BME280;61975;48.660;10.164;2023-07-29T11:49:40;95169.13;;;23.35;80.62
73674;BME280;61975;48.660;10.164;2023-07-29T11:52:07;95169.94;;;23.36;73.57
73674;BME280;61975;48.660;10.164;2023-07-29T11:54:35;95185.34;;;23.35;76.86
73674;BME280;61975;48.660;10.164;2023-07-29T11:57:04;95169.59;;;23.43;80.13
73674;BME280;61975;48.660;10.164;2023-07-29T11:59:31;95167.69;;;23.49;72.35
73674;BME280;61975;48.660;10.164;2023-07-29T12:01:58;95173.22;;;23.43;70.52
73674;BME280;61975;48.660;10.164;2023-07-29T12:04:25;95183.41;;;23.50;72.04
73674;BME280;61975;48.660;10.164;2023-07-29T12:06:51;95185.09;;;23.56;74.84
73674;BME280;61975;48.660;10.164;2023-07-29T12:09:16;95194.06;;;23.55;75.24
73674;BME280;61975;48.660;10.164;2023-07-29T12:11:43;95186.44;;;23.37;76.46
73674;BME280;61975;48.660;10.164;2023-07-29T12:14:09;95183.34;;;23.26;76.43
73674;BME280;61975;48.660;10.164;2023-07-29T12:16:44;95174.84;;;23.26;76.98
73674;BME280;61975;48.660;10.164;2023-07-29T12:19:13;95179.09;;;23.22;75.05
73674;BME280;61975;48.660;10.164;2023-07-29T12:21:42;95167.78;;;23.04;76.52
73674;BME280;61975;48.660;10.164;2023-07-29T12:24:08;95166.53;;;22.96;78.02
73674;BME280;61975;48.660;10.164;2023-07-29T12:26:33;95170.63;;;23.04;79.65
73674;BME280;61975;48.660;10.164;2023-07-29T12:29:11;95174.81;;;23.17;79.66
73674;BME280;61975;48.660;10.164;2023-07-29T12:31:37;95158.28;;;23.34;79.49
73674;BME280;61975;48.660;10.164;2023-07-29T12:34:02;95146.56;;;23.50;77.21
73674;BME280;61975;48.660;10.164;2023-07-29T12:36:43;95147.63;;;23.61;75.90
73674;BME280;61975;48.660;10.164;2023-07-29T12:39:23;95148.34;;;23.71;75.77
73674;BME280;61975;48.660;10.164;2023-07-29T12:41:50;95148.56;;;23.67;74.80
73674;BME280;61975;48.660;10.164;2023-07-29T12:44:16;95142.38;;;23.69;74.51
73674;BME280;61975;48.660;10.164;2023-07-29T12:46:41;95140.81;;;23.68;74.32
73674;BME280;61975;48.660;10.164;2023-07-29T12:49:06;95143.53;;;23.62;76.73
73674;BME280;61975;48.660;10.164;2023-07-29T12:51:32;95144.22;;;23.81;78.12